Terminal Aerodrome Forecast
Issued by NWS

Current Version | Previous Version | Text Only | Print | Product List | Glossary Off
Versions: 1 2 3 4 5 6 7 8 9 10 11 12 13 14 15 16 17 18 19 20 21 22 23 24

500
FTUS41 KPBZ 121519 AAB
TAFMGW
TAF AMD
KMGW 121519Z 1215/1312 VRB03KT P6SM BKN100
     FM122100 25008KT P6SM -SN BKN035
     FM130300 28011G19KT 4SM -SHSN OVC015
      TEMPO 1303/1306 1SM -SHSN OVC007
     FM130700 30010G20KT P6SM VCSH BKN025=

USA.gov is the U.S. government's official web portal to all federal, state and local government web resources and services.